Impacts METAR Board
IDs:

KPIT - Pittsburgh Intl, PA, US

Updated at: 1300 UTC 13 Dec 2018
Potential Impact None Slight Moderate High
Time 13/01Z 13/02Z 13/03Z 13/04Z 13/05Z 13/06Z 13/07Z 13/08Z 13/09Z 13/10Z 13/11Z 13/12Z 13/13Z
Temp38 38 41 40 40 39 37 38 37 37 35 33 34
Dewpt24 25 25 26 26 26 27 28 29 29 29 29 30
Altim29.98 29.99 29.99 30.00 30.00 30.01 30.02 30.04 30.04 30.05 30.08 30.11 30.14
VIS10 10 10 10 10 10 10 10 10 10 10 10 10
CIG70 70 45 -- -- -- -- -- 38 60 -- -- 50
CoverOVCOVCBKNSCTSCTSCTSCTSCTBKNBKNFEWFEWBKN
FltCatVFRVFRVFRVFRVFRVFRVFRVFRVFRVFRVFRVFRVFR
WX--------------------------
WDir19020022023018019018001701601801900
WSpd3 3 9 4 3 3 4 0 5 3 3 3 0
WGst-- -- -- -- -- -- -- -- -- -- -- -- --
Raw hourly METARs
KPIT 130051Z 19003KT 10SM OVC070 03/M04 A2998 RMK AO2 SLP170 T00331044
KPIT 130151Z 20003KT 10SM OVC070 03/M04 A2999 RMK AO2 SLP175 T00331039
KPIT 130251Z 22009KT 10SM BKN045 BKN070 05/M04 A2999 RMK AO2 SLP171 T00501039 50004
KPIT 130351Z 23004KT 10SM FEW045 SCT070 04/M03 A3000 RMK AO2 SLP175 T00441033
KPIT 130451Z 18003KT 10SM SCT043 04/M03 A3000 RMK AO2 SLP177 T00441033 400501039
KPIT 130551Z 19003KT 10SM SCT045 04/M03 A3001 RMK AO2 SLP180 T00391033 10050 20028 51008
KPIT 130651Z 18004KT 10SM FEW045 SCT060 03/M03 A3002 RMK AO2 SLP182 T00281028
KPIT 130751Z 00000KT 10SM FEW045 SCT060 03/M02 A3004 RMK AO2 SLP188 T00331022
KPIT 130851Z 17005KT 10SM BKN038 03/M02 A3004 RMK AO2 SLP188 T00281017 50008
KPIT 130951Z 16003KT 10SM SCT038 BKN060 03/M02 A3005 RMK AO2 SLP192 T00281017
KPIT 131051Z 18003KT 10SM FEW060 02/M02 A3008 RMK AO2 SLP202 T00171017
KPIT 131151Z 19003KT 10SM FEW065 01/M02 A3011 RMK AO2 SLP213 T00061017 10039 20006 53023
KPIT 131251Z 00000KT 10SM FEW042 BKN050 01/M01 A3014 RMK AO2 SLP223 T00111011



Page loaded:  13:27 UTC  |   05:27 AM Pacific  |   06:27 AM Mountain  |   07:27 AM Central  |   08:27 AM Eastern

 

ADVISORIES

FORECASTS

FORECASTS

OBSERVATIONS

USER TOOLS

ABOUT US